Time;durP1;ratioP1;P1;durP2;ratioP2;P2;SDS_P1;SDS_P2;PMS_P1;PMS_P2;Temp;Humidity;BMP_temperature;BMP_pressure;BME280_temperature;BME280_humidity;BME280_pressure;Samples;Min_cycle;Max_cycle;Signal;HPM_P1;HPM_P2
2021/07/06 00:00:48;;;;;;;;;;;;;;;21.58;58.96;99449.72;2211231;39;113846;-57
2021/07/06 00:02:21;;;;;;;;;;;;;;;21.59;59.54;99445.75;2207258;39;115154;-57
2021/07/06 00:03:53;;;;;;;;;;;;;;;21.59;59.62;99452.19;2210862;39;114927;-57
2021/07/06 00:05:25;;;;;;;;;;;;;;;21.57;59.52;99456.53;2211589;39;114928;-56
2021/07/06 00:06:56;;;;;;;;;;;;;;;21.59;59.89;99457.81;2208963;39;114306;-57
2021/07/06 00:08:28;;;;;;;;;;;;;;;21.58;60.00;99455.34;2211225;39;114757;-57
2021/07/06 00:10:00;;;;;;;;;;;;;;;21.61;59.81;99460.28;2211878;39;114773;-57
2021/07/06 00:11:31;;;;;;;;;;;;;;;21.61;59.88;99452.66;2210126;39;114191;-56
2021/07/06 00:13:03;;;;;;;;;;;;;;;21.59;59.98;99451.38;2212385;39;114780;-57
2021/07/06 00:14:35;;;;;;;;;;;;;;;21.60;59.95;99448.22;2211374;39;115016;-56
2021/07/06 00:16:06;;;;;;;;;;;;;;;21.60;60.06;99436.16;2210120;39;113802;-57
2021/07/06 00:17:38;;;;;;;;;;;;;;;21.58;60.30;99444.91;2213058;39;114855;-57
2021/07/06 00:19:10;;;;;;;;;;;;;;;21.64;60.33;99440.72;2211387;39;115497;-57
2021/07/06 00:20:42;;;;;;;;;;;;;;;21.61;60.18;99434.97;2211431;39;115550;-56
2021/07/06 00:22:13;;;;;;;;;;;;;;;21.62;60.19;99434.59;2211093;39;115487;-56
2021/07/06 00:23:45;;;;;;;;;;;;;;;21.62;60.35;99431.00;2210912;39;115623;-56
2021/07/06 00:25:17;;;;;;;;;;;;;;;21.61;60.42;99441.44;2211411;39;115258;-57
2021/07/06 00:26:48;;;;;;;;;;;;;;;21.65;60.31;99436.72;2211394;39;115498;-56
2021/07/06 00:28:20;;;;;;;;;;;;;;;21.65;60.53;99428.31;2211411;39;115539;-56
2021/07/06 00:29:51;;;;;;;;;;;;;;;21.63;60.49;99430.63;2209093;39;115520;-57
2021/07/06 00:31:23;;;;;;;;;;;;;;;21.64;60.39;99432.28;2206949;39;115515;-56
2021/07/06 00:32:56;;;;;;;;;;;;;;;21.64;60.63;99431.47;2211307;39;115796;-56
2021/07/06 00:34:28;;;;;;;;;;;;;;;21.61;60.72;99438.63;2211573;39;115583;-57
2021/07/06 00:36:01;;;;;;;;;;;;;;;21.65;60.38;99433.09;2211302;39;116542;-61
2021/07/06 00:37:33;;;;;;;;;;;;;;;21.66;60.52;99424.31;2210610;39;114173;-57
2021/07/06 00:39:05;;;;;;;;;;;;;;;21.65;60.71;99433.09;2213949;39;116191;-56
2021/07/06 00:40:37;;;;;;;;;;;;;;;21.68;60.77;99436.03;2211327;39;113766;-56
2021/07/06 00:42:09;;;;;;;;;;;;;;;21.65;60.64;99430.28;2211294;39;114559;-56
2021/07/06 00:43:41;;;;;;;;;;;;;;;21.66;60.63;99431.94;2211055;39;113770;-56
2021/07/06 00:45:14;;;;;;;;;;;;;;;21.65;60.25;99439.53;2210029;39;114291;-57
2021/07/06 00:46:46;;;;;;;;;;;;;;;21.66;60.33;99429.94;2210390;39;113783;-56
2021/07/06 00:48:17;;;;;;;;;;;;;;;21.69;60.63;99434.03;2210888;39;114043;-56
2021/07/06 00:49:49;;;;;;;;;;;;;;;21.65;60.33;99444.34;2208783;39;114077;-57
2021/07/06 00:51:20;;;;;;;;;;;;;;;21.66;60.81;99435.56;2211852;39;113650;-56
2021/07/06 00:52:52;;;;;;;;;;;;;;;21.65;60.38;99433.09;2211189;39;113748;-56
2021/07/06 00:54:24;;;;;;;;;;;;;;;21.64;60.62;99423.84;2209875;39;113750;-56
2021/07/06 00:55:57;;;;;;;;;;;;;;;21.62;60.42;99412.13;2209193;39;113903;-56
2021/07/06 00:57:31;;;;;;;;;;;;;;;21.65;60.76;99414.25;2211188;39;113765;-56
2021/07/06 00:59:02;;;;;;;;;;;;;;;21.65;60.82;99422.69;2217834;39;113950;-57
2021/07/06 01:00:34;;;;;;;;;;;;;;;21.65;60.74;99425.50;2212725;39;113672;-56
2021/07/06 01:02:06;;;;;;;;;;;;;;;21.65;60.45;99427.47;2208988;39;114834;-56
2021/07/06 01:03:37;;;;;;;;;;;;;;;21.65;60.47;99433.09;2213979;39;115195;-61
2021/07/06 01:05:11;;;;;;;;;;;;;;;21.64;60.48;99428.66;2211041;39;114827;-57
2021/07/06 01:06:42;;;;;;;;;;;;;;;21.66;60.41;99423.50;2210905;39;113822;-56
2021/07/06 01:08:14;;;;;;;;;;;;;;;21.65;60.45;99428.31;2211753;39;114541;-56
2021/07/06 01:09:45;;;;;;;;;;;;;;;21.63;60.08;99425.00;2211116;39;114829;-56
2021/07/06 01:11:17;;;;;;;;;;;;;;;21.61;60.49;99421.75;2211396;39;115372;-57
2021/07/06 01:12:52;;;;;;;;;;;;;;;21.66;60.23;99423.50;2210178;39;115606;-56
2021/07/06 01:14:24;;;;;;;;;;;;;;;21.66;60.50;99426.31;2209231;39;115265;-56
2021/07/06 01:15:55;;;;;;;;;;;;;;;21.65;60.42;99416.25;2211041;39;115046;-56
2021/07/06 01:17:28;;;;;;;;;;;;;;;21.64;60.29;99414.59;2211644;39;114609;-56
2021/07/06 01:18:59;;;;;;;;;;;;;;;21.64;60.45;99415.41;2209756;39;114806;-56
2021/07/06 01:20:31;;;;;;;;;;;;;;;21.62;60.27;99409.31;2211210;39;114801;-56
2021/07/06 01:22:04;;;;;;;;;;;;;;;21.62;60.19;99414.94;2213160;39;114943;-56
2021/07/06 01:23:35;;;;;;;;;;;;;;;21.62;60.11;99409.31;2210717;39;115530;-56
2021/07/06 01:25:08;;;;;;;;;;;;;;;21.63;60.03;99410.97;2210886;39;114725;-56
2021/07/06 01:26:39;;;;;;;;;;;;;;;21.65;60.08;99405.00;2211525;39;115493;-56
2021/07/06 01:28:11;;;;;;;;;;;;;;;21.65;60.21;99405.81;2211105;39;115969;-56
2021/07/06 01:29:43;;;;;;;;;;;;;;;21.64;59.89;99412.59;2210132;39;115647;-57
2021/07/06 01:31:14;;;;;;;;;;;;;;;21.65;60.28;99405.81;2211659;39;115490;-56
2021/07/06 01:32:47;;;;;;;;;;;;;;;21.62;60.27;99403.69;2208320;39;115651;-56
2021/07/06 01:34:19;;;;;;;;;;;;;;;21.64;60.05;99414.59;2210724;39;115375;-57
2021/07/06 01:35:51;;;;;;;;;;;;;;;21.65;60.23;99405.81;2210320;39;115612;-56
2021/07/06 01:37:23;;;;;;;;;;;;;;;21.68;59.86;99415.53;2209892;39;115881;-56
2021/07/06 01:38:54;;;;;;;;;;;;;;;21.65;59.92;99408.63;2210816;39;115634;-56
2021/07/06 01:40:27;;;;;;;;;;;;;;;21.69;60.15;99400.28;2210926;39;114897;-56
2021/07/06 01:41:59;;;;;;;;;;;;;;;21.67;60.21;99408.25;2210730;39;115992;-57
2021/07/06 01:43:31;;;;;;;;;;;;;;;21.63;60.00;99404.50;2210524;39;115678;-55
2021/07/06 01:45:04;;;;;;;;;;;;;;;21.63;60.04;99398.88;2211836;39;115440;-56
2021/07/06 01:46:39;;;;;;;;;;;;;;;21.62;59.91;99400.09;2208563;39;113845;-56
2021/07/06 01:48:11;;;;;;;;;;;;;;;21.62;60.38;99388.84;2207618;39;113909;-56
2021/07/06 01:49:42;;;;;;;;;;;;;;;21.63;60.10;99408.16;2210820;39;113717;-56
2021/07/06 01:51:14;;;;;;;;;;;;;;;21.63;60.25;99402.53;2206052;39;114156;-56
2021/07/06 01:52:47;;;;;;;;;;;;;;;21.63;60.30;99402.53;2208465;39;113776;-56
2021/07/06 01:54:18;;;;;;;;;;;;;;;21.61;60.18;99395.63;2209473;39;113664;-56
2021/07/06 01:55:50;;;;;;;;;;;;;;;21.61;60.04;99402.06;2210268;39;113760;-57
2021/07/06 01:57:24;;;;;;;;;;;;;;;21.60;60.02;99400.44;2210288;39;113725;-57
2021/07/06 01:58:56;;;;;;;;;;;;;;;21.60;60.06;99388.38;2209106;39;114037;-58
2021/07/06 02:00:29;;;;;;;;;;;;;;;21.59;60.85;99387.53;2211445;39;113625;-56
2021/07/06 02:02:00;;;;;;;;;;;;;;;21.59;60.65;99384.72;2211314;39;113946;-56
2021/07/06 02:03:32;;;;;;;;;;;;;;;21.61;60.40;99385.22;2210847;39;114134;-56
2021/07/06 02:05:13;;;;;;;;;;;;;;;21.59;60.09;99381.91;2211037;39;114069;-57
2021/07/06 02:06:44;;;;;;;;;;;;;;;21.58;60.18;99376.66;2213762;39;113588;-56
2021/07/06 02:08:18;;;;;;;;;;;;;;;21.58;60.33;99354.97;2210873;39;113790;-56
2021/07/06 02:09:49;;;;;;;;;;;;;;;21.59;60.49;99365.06;2211576;39;115198;-57
2021/07/06 02:11:21;;;;;;;;;;;;;;;21.59;60.51;99369.84;2211408;39;114886;-57
2021/07/06 02:12:53;;;;;;;;;;;;;;;21.59;60.20;99369.84;2208360;39;115072;-56
2021/07/06 02:14:24;;;;;;;;;;;;;;;21.56;60.37;99365.78;2211071;39;114748;-56
2021/07/06 02:15:57;;;;;;;;;;;;;;;21.60;60.12;99371.50;2210689;39;114721;-56
2021/07/06 02:17:29;;;;;;;;;;;;;;;21.58;60.46;99360.59;2207449;39;114979;-56
2021/07/06 02:19:00;;;;;;;;;;;;;;;21.58;60.31;99357.78;2210011;39;114799;-56
2021/07/06 02:20:32;;;;;;;;;;;;;;;21.56;60.37;99357.34;2210963;39;114867;-56
2021/07/06 02:22:04;;;;;;;;;;;;;;;21.57;60.22;99360.97;2211028;39;115585;-56
2021/07/06 02:23:35;;;;;;;;;;;;;;;21.59;60.16;99364.25;2209947;39;114925;-56
2021/07/06 02:25:08;;;;;;;;;;;;;;;21.58;60.50;99360.59;2210160;39;114763;-56
2021/07/06 02:26:39;;;;;;;;;;;;;;;21.58;60.45;99357.78;2210771;39;114748;-57
2021/07/06 02:28:11;;;;;;;;;;;;;;;21.59;59.92;99344.56;2213124;39;115258;-56
2021/07/06 02:29:43;;;;;;;;;;;;;;;21.58;60.39;99343.75;2211083;39;115603;-56
2021/07/06 02:31:15;;;;;;;;;;;;;;;21.56;60.13;99340.47;2210793;39;116155;-56
2021/07/06 02:32:47;;;;;;;;;;;;;;;21.55;60.03;99352.88;2209149;39;116435;-56
2021/07/06 02:34:18;;;;;;;;;;;;;;;21.55;60.05;99350.06;2209645;39;115772;-56
2021/07/06 02:35:50;;;;;;;;;;;;;;;21.54;60.04;99331.56;2209645;39;115481;-57
2021/07/06 02:37:22;;;;;;;;;;;;;;;21.55;59.70;99343.63;2206922;39;115622;-56
2021/07/06 02:38:53;;;;;;;;;;;;;;;21.54;60.17;99337.19;2209016;39;115799;-56
2021/07/06 02:40:25;;;;;;;;;;;;;;;21.56;59.86;99336.84;2210910;39;115433;-57
2021/07/06 02:41:57;;;;;;;;;;;;;;;21.55;59.77;99333.22;2210075;39;115506;-56
2021/07/06 02:43:29;;;;;;;;;;;;;;;21.59;59.85;99338.94;2210773;39;115896;-57
2021/07/06 02:45:00;;;;;;;;;;;;;;;21.56;59.76;99343.28;2211451;39;115498;-57
2021/07/06 02:46:32;;;;;;;;;;;;;;;21.55;59.78;99338.00;2211855;39;115570;-57
2021/07/06 02:48:04;;;;;;;;;;;;;;;21.54;59.83;99328.75;2211869;39;115529;-56
2021/07/06 02:49:35;;;;;;;;;;;;;;;21.54;59.67;99336.38;2214218;39;115485;-56
2021/07/06 02:51:08;;;;;;;;;;;;;;;21.56;59.64;99334.03;2210293;39;113726;-56
2021/07/06 02:52:40;;;;;;;;;;;;;;;21.53;59.67;99358.03;2211332;39;113748;-56
2021/07/06 02:54:12;;;;;;;;;;;;;;;21.54;59.28;99340.00;2212095;39;113933;-56
2021/07/06 02:55:43;;;;;;;;;;;;;;;21.55;59.34;99346.44;2211427;39;113674;-57
2021/07/06 02:57:34;;;;;;;;;;;;;;;21.55;58.83;99327.59;2211553;39;113752;-56
2021/07/06 02:59:06;;;;;;;;;;;;;;;21.53;59.33;99337.56;2211542;39;113854;-56
2021/07/06 03:00:37;;;;;;;;;;;;;;;21.53;59.30;99329.94;2210284;39;113899;-56
2021/07/06 03:02:09;;;;;;;;;;;;;;;21.52;58.80;99331.13;2211068;39;113788;-56
2021/07/06 03:03:41;;;;;;;;;;;;;;;21.53;59.03;99327.13;2211561;39;113785;-56
2021/07/06 03:05:13;;;;;;;;;;;;;;;21.52;58.68;99327.50;2211331;39;113768;-57
2021/07/06 03:06:47;;;;;;;;;;;;;;;21.51;58.66;99326.66;2209910;39;113795;-56
2021/07/06 03:08:18;;;;;;;;;;;;;;;21.50;58.75;99327.84;2208254;39;113969;-56
2021/07/06 03:09:50;;;;;;;;;;;;;;;21.51;59.00;99332.28;2211842;39;114018;-57
2021/07/06 03:11:25;;;;;;;;;;;;;;;21.51;58.73;99332.28;2211641;39;113557;-56
2021/07/06 03:12:57;;;;;;;;;;;;;;;21.50;58.53;99332.63;2213241;39;113759;-56
2021/07/06 03:14:28;;;;;;;;;;;;;;;21.50;58.59;99327.03;2211885;39;115159;-56
2021/07/06 03:16:01;;;;;;;;;;;;;;;21.47;58.52;99325.75;2210401;39;113969;-56
2021/07/06 03:17:33;;;;;;;;;;;;;;;21.48;58.56;99316.16;2209110;39;114869;-56
2021/07/06 03:19:04;;;;;;;;;;;;;;;21.48;58.55;99318.97;2209560;39;115263;-56
2021/07/06 03:20:36;;;;;;;;;;;;;;;21.49;58.73;99316.94;2210992;39;114773;-56
2021/07/06 03:22:08;;;;;;;;;;;;;;;21.48;58.67;99313.34;2211290;39;114931;-56
2021/07/06 03:23:40;;;;;;;;;;;;;;;21.48;58.58;99309.72;2209953;39;114512;-56
2021/07/06 03:25:13;;;;;;;;;;;;;;;21.46;58.25;99315.66;2211454;39;114732;-57
2021/07/06 03:26:44;;;;;;;;;;;;;;;21.47;58.50;99308.06;2211419;39;114879;-56
2021/07/06 03:28:16;;;;;;;;;;;;;;;21.46;58.34;99309.22;2210931;39;115477;-56
2021/07/06 03:29:47;;;;;;;;;;;;;;;21.46;58.52;99303.59;2211391;39;114799;-56
2021/07/06 03:31:19;;;;;;;;;;;;;;;21.46;58.52;99303.59;2211385;39;114919;-56
2021/07/06 03:32:52;;;;;;;;;;;;;;;21.45;58.63;99290.72;2211379;39;115423;-56
2021/07/06 03:34:23;;;;;;;;;;;;;;;21.45;58.41;99294.34;2212298;39;114759;-56
2021/07/06 03:35:55;;;;;;;;;;;;;;;21.49;58.64;99289.66;2211540;39;115870;-56
2021/07/06 03:37:27;;;;;;;;;;;;;;;21.45;58.01;99299.16;2211587;39;115728;-57
2021/07/06 03:38:58;;;;;;;;;;;;;;;21.46;58.68;99290.38;2211580;39;115495;-56
2021/07/06 03:40:30;;;;;;;;;;;;;;;21.45;58.10;99288.75;2211511;39;115632;-56
2021/07/06 03:42:03;;;;;;;;;;;;;;;21.45;58.01;99287.91;2211256;39;115509;-56
2021/07/06 03:43:35;;;;;;;;;;;;;;;21.44;58.59;99292.72;2211361;39;116028;-56
2021/07/06 03:45:08;;;;;;;;;;;;;;;21.45;58.53;99294.34;2211277;39;115609;-56
2021/07/06 03:46:39;;;;;;;;;;;;;;;21.44;58.39;99291.94;2211740;39;115500;-56
2021/07/06 03:48:11;;;;;;;;;;;;;;;21.43;58.25;99291.09;2211062;39;115537;-57
2021/07/06 03:49:43;;;;;;;;;;;;;;;21.43;58.11;99288.28;2211636;39;114573;-56
2021/07/06 03:51:15;;;;;;;;;;;;;;;21.43;58.28;99293.09;2208298;39;115434;-56
2021/07/06 03:52:50;;;;;;;;;;;;;;;21.43;58.01;99287.47;2211470;39;115461;-56
2021/07/06 03:54:22;;;;;;;;;;;;;;;21.42;58.23;99294.25;2207333;39;115472;-56
2021/07/06 03:55:53;;;;;;;;;;;;;;;21.42;58.69;99300.69;2213343;39;115252;-56
2021/07/06 03:57:31;;;;;;;;;;;;;;;21.44;58.21;99300.34;2211131;39;113782;-55
2021/07/06 03:59:02;;;;;;;;;;;;;;;21.42;58.29;99285.81;2210699;39;113767;-56
2021/07/06 04:00:34;;;;;;;;;;;;;;;21.42;58.40;99283.84;2211596;39;113857;-56
2021/07/06 04:02:06;;;;;;;;;;;;;;;21.43;58.31;99273.41;2211689;39;113753;-57
2021/07/06 04:03:38;;;;;;;;;;;;;;;21.43;58.28;99277.06;2212079;39;113877;-56
2021/07/06 04:05:10;;;;;;;;;;;;;;;21.43;58.15;99279.88;2212361;39;113579;-56
2021/07/06 04:06:42;;;;;;;;;;;;;;;21.42;58.47;99272.59;2211373;39;113530;-56
2021/07/06 04:08:13;;;;;;;;;;;;;;;21.40;58.41;99269.31;2211032;39;113671;-56
2021/07/06 04:09:45;;;;;;;;;;;;;;;21.43;58.25;99270.63;2211742;39;113661;-56
2021/07/06 04:11:16;;;;;;;;;;;;;;;21.42;58.37;99266.16;2211418;39;113676;-56
2021/07/06 04:12:49;;;;;;;;;;;;;;;21.40;58.61;99269.31;2210575;39;113994;-56
2021/07/06 04:14:20;;;;;;;;;;;;;;;21.43;58.86;99265.00;2211628;39;113698;-56
2021/07/06 04:15:52;;;;;;;;;;;;;;;21.40;58.99;99263.69;2209793;39;113679;-56
2021/07/06 04:17:23;;;;;;;;;;;;;;;21.40;58.83;99266.50;2212375;39;114016;-56
2021/07/06 04:18:55;;;;;;;;;;;;;;;21.42;58.75;99263.34;2211035;39;114794;-56
2021/07/06 04:20:27;;;;;;;;;;;;;;;21.39;58.95;99262.09;2211485;39;114742;-56
2021/07/06 04:21:59;;;;;;;;;;;;;;;21.40;58.77;99263.69;2211155;39;114774;-57
2021/07/06 04:23:30;;;;;;;;;;;;;;;21.39;59.19;99261.25;2210679;39;114794;-57
2021/07/06 04:25:02;;;;;;;;;;;;;;;21.39;59.01;99253.66;2208159;39;114768;-56
2021/07/06 04:26:34;;;;;;;;;;;;;;;21.41;59.10;99254.09;2211508;39;114727;-57
2021/07/06 04:28:05;;;;;;;;;;;;;;;21.41;59.42;99256.91;2211212;39;114424;-55
2021/07/06 04:29:37;;;;;;;;;;;;;;;21.40;59.58;99249.66;2211464;39;114754;-56
2021/07/06 04:31:08;;;;;;;;;;;;;;;21.41;59.64;99250.47;2210830;39;115295;-57
2021/07/06 04:32:40;;;;;;;;;;;;;;;21.40;59.63;99251.63;2211456;39;115215;-56
2021/07/06 04:34:11;;;;;;;;;;;;;;;21.41;59.87;99245.66;2211786;39;115146;-57
2021/07/06 04:35:43;;;;;;;;;;;;;;;21.43;59.92;99248.13;2211721;39;114314;-57
2021/07/06 04:37:15;;;;;;;;;;;;;;;21.44;60.14;99246.97;2211493;39;114784;-57
2021/07/06 04:38:47;;;;;;;;;;;;;;;21.47;60.56;99249.06;2213613;39;114828;-55
2021/07/06 04:40:18;;;;;;;;;;;;;;;21.48;60.64;99242.28;2211488;39;115484;-57
2021/07/06 04:41:50;;;;;;;;;;;;;;;21.51;60.82;99241.53;2211138;39;115517;-56
2021/07/06 04:43:22;;;;;;;;;;;;;;;21.54;61.04;99240.81;2211455;39;114538;-57
2021/07/06 04:44:54;;;;;;;;;;;;;;;21.56;60.88;99235.69;2210912;39;116323;-56
2021/07/06 04:46:25;;;;;;;;;;;;;;;21.59;61.16;99227.34;2211544;39;114936;-57
2021/07/06 04:47:57;;;;;;;;;;;;;;;21.62;61.46;99220.22;2211061;39;115744;-56
2021/07/06 04:49:29;;;;;;;;;;;;;;;21.65;61.21;99225.91;2211526;39;115447;-56
2021/07/06 04:51:08;;;;;;;;;;;;;;;21.68;61.66;99216.75;2210568;39;115523;-56
2021/07/06 04:52:44;;;;;;;;;;;;;;;21.72;61.82;99214.88;2211358;39;115404;-56
2021/07/06 04:54:20;;;;;;;;;;;;;;;21.75;61.38;99210.53;2210522;39;115452;-56
2021/07/06 04:55:51;;;;;;;;;;;;;;;21.78;61.66;99209.00;2211612;39;115445;-57
2021/07/06 04:57:23;;;;;;;;;;;;;;;21.82;61.53;99209.91;2211587;39;115882;-56
2021/07/06 04:58:55;;;;;;;;;;;;;;;21.84;61.35;99199.13;2210554;39;115444;-56
2021/07/06 05:00:27;;;;;;;;;;;;;;;21.86;61.00;99203.19;2211471;39;115513;-56
2021/07/06 05:01:58;;;;;;;;;;;;;;;21.89;61.00;99196.88;2214103;39;115725;-56
2021/07/06 05:03:31;;;;;;;;;;;;;;;21.92;60.84;99196.16;2211227;39;113825;-56
2021/07/06 05:05:03;;;;;;;;;;;;;;;21.95;60.75;99192.63;2212619;39;113750;-56
2021/07/06 05:06:35;;;;;;;;;;;;;;;21.97;60.75;99184.66;2208350;39;113733;-56
2021/07/06 05:08:10;;;;;;;;;;;;;;;22.00;60.52;99197.16;2211073;39;113867;-56
2021/07/06 05:09:41;;;;;;;;;;;;;;;22.01;60.54;99190.38;2210845;39;113735;-56
2021/07/06 05:11:14;;;;;;;;;;;;;;;22.03;60.14;99185.22;2210820;39;113729;-56
2021/07/06 05:12:45;;;;;;;;;;;;;;;22.05;60.06;99186.47;2210967;39;114271;-57
2021/07/06 05:14:17;;;;;;;;;;;;;;;22.08;60.06;99179.31;2211606;39;113769;-56
2021/07/06 05:15:48;;;;;;;;;;;;;;;22.08;60.18;99171.69;2211436;39;113640;-56
2021/07/06 05:17:20;;;;;;;;;;;;;;;22.10;59.55;99166.53;2209724;39;113658;-56
2021/07/06 05:18:51;;;;;;;;;;;;;;;22.12;59.85;99160.56;2210437;39;113690;-57
2021/07/06 05:20:23;;;;;;;;;;;;;;;22.13;59.76;99162.97;2211449;39;113832;-56
2021/07/06 05:21:55;;;;;;;;;;;;;;;22.15;59.62;99160.63;2209039;39;113760;-56
2021/07/06 05:23:26;;;;;;;;;;;;;;;22.18;59.33;99161.91;2214041;39;113663;-57
2021/07/06 05:24:58;;;;;;;;;;;;;;;22.19;59.31;99166.34;2211282;39;114210;-56
2021/07/06 05:26:29;;;;;;;;;;;;;;;22.20;58.99;99150.28;2210739;39;114705;-57
2021/07/06 05:28:01;;;;;;;;;;;;;;;22.21;59.31;99149.94;2210893;39;114845;-56
2021/07/06 05:29:33;;;;;;;;;;;;;;;22.23;59.28;99150.38;2211116;39;114037;-56
2021/07/06 05:31:05;;;;;;;;;;;;;;;22.25;59.09;99152.84;2211175;39;115266;-57
2021/07/06 05:32:37;;;;;;;;;;;;;;;22.25;59.10;99150.84;2211046;39;115017;-56
2021/07/06 05:34:09;;;;;;;;;;;;;;;22.26;59.12;99149.63;2210569;39;113880;-57
2021/07/06 05:35:41;;;;;;;;;;;;;;;22.27;58.77;99153.25;2210327;39;114920;-57
2021/07/06 05:37:12;;;;;;;;;;;;;;;22.27;58.73;99145.66;2211343;39;114756;-57
2021/07/06 05:38:47;;;;;;;;;;;;;;;22.29;58.59;99146.09;2211172;39;114761;-56
2021/07/06 05:40:19;;;;;;;;;;;;;;;22.30;58.62;99144.94;2210631;39;114148;-56
2021/07/06 05:41:50;;;;;;;;;;;;;;;22.31;58.51;99151.34;2211204;39;114869;-56
2021/07/06 05:43:22;;;;;;;;;;;;;;;22.31;58.42;99146.53;2209847;39;115216;-56
2021/07/06 05:44:54;;;;;;;;;;;;;;;22.33;58.14;99137.75;2213508;39;114970;-56
2021/07/06 05:46:29;;;;;;;;;;;;;;;22.33;58.28;99132.94;2210771;39;114018;-56
2021/07/06 05:48:01;;;;;;;;;;;;;;;22.34;57.94;99137.41;2211091;39;115517;-57
2021/07/06 05:49:33;;;;;;;;;;;;;;;22.34;57.94;99134.59;2211398;39;115381;-56
2021/07/06 05:51:06;;;;;;;;;;;;;;;22.35;57.76;99135.41;2209658;39;114529;-56
2021/07/06 05:52:37;;;;;;;;;;;;;;;22.36;57.94;99128.56;2210699;39;115881;-56
2021/07/06 05:54:09;;;;;;;;;;;;;;;22.36;57.93;99129.38;2210978;39;114540;-57
2021/07/06 05:55:42;;;;;;;;;;;;;;;22.36;57.89;99132.19;2211739;39;115491;-57
2021/07/06 05:57:13;;;;;;;;;;;;;;;22.37;57.57;99147.91;2211248;39;115837;-57
2021/07/06 05:58:45;;;;;;;;;;;;;;;22.36;57.45;99143.47;2211197;39;116000;-57
2021/07/06 06:00:17;;;;;;;;;;;;;;;22.37;57.47;99138.66;2210471;39;115586;-56
2021/07/06 06:01:51;;;;;;;;;;;;;;;22.36;57.52;99135.00;2210351;39;115225;-57
2021/07/06 06:03:23;;;;;;;;;;;;;;;22.37;57.30;99135.84;2210972;39;114524;-56
2021/07/06 06:04:55;;;;;;;;;;;;;;;22.36;57.50;99137.81;2212217;39;115991;-56
2021/07/06 06:06:26;;;;;;;;;;;;;;;22.37;57.06;99133.03;2213821;39;115823;-56
2021/07/06 06:07:58;;;;;;;;;;;;;;;22.36;57.14;99129.38;2210533;39;113662;-56
2021/07/06 06:09:30;;;;;;;;;;;;;;;22.36;57.00;99128.56;2207380;39;113908;-56
2021/07/06 06:11:02;;;;;;;;;;;;;;;22.35;56.78;99119.31;2206969;39;113776;-56
2021/07/06 06:12:34;;;;;;;;;;;;;;;22.36;57.26;99126.56;2211117;39;114334;-56
2021/07/06 06:14:06;;;;;;;;;;;;;;;22.36;56.98;99126.56;2211052;39;113695;-56
2021/07/06 06:15:37;;;;;;;;;;;;;;;22.36;57.09;99122.94;2211073;39;113877;-56
2021/07/06 06:17:09;;;;;;;;;;;;;;;22.35;57.04;99124.94;2210534;39;113883;-57
2021/07/06 06:18:41;;;;;;;;;;;;;;;22.35;57.30;99121.34;2210499;39;113733;-56
2021/07/06 06:20:13;;;;;;;;;;;;;;;22.34;57.16;99123.31;2211364;39;113665;-57
2021/07/06 06:21:44;;;;;;;;;;;;;;;22.35;57.20;99124.94;2210797;39;113882;-56
2021/07/06 06:23:16;;;;;;;;;;;;;;;22.36;57.23;99120.13;2211615;39;113883;-56
2021/07/06 06:24:48;;;;;;;;;;;;;;;22.36;57.22;99122.94;2211948;39;113809;-56
2021/07/06 06:26:19;;;;;;;;;;;;;;;22.35;57.49;99119.31;2211976;39;113911;-56
2021/07/06 06:27:51;;;;;;;;;;;;;;;22.35;57.27;99118.53;2211207;39;113659;-56
2021/07/06 06:29:22;;;;;;;;;;;;;;;22.35;57.14;99110.06;2212693;39;113541;-56
2021/07/06 06:30:55;;;;;;;;;;;;;;;22.36;57.37;99120.13;2211811;39;115009;-56
2021/07/06 06:32:26;;;;;;;;;;;;;;;22.36;57.32;99120.94;2211864;39;115055;-57
2021/07/06 06:33:58;;;;;;;;;;;;;;;22.34;57.37;99112.06;2211305;39;114113;-57
2021/07/06 06:35:29;;;;;;;;;;;;;;;22.34;57.39;99106.44;2212189;39;114727;-56
2021/07/06 06:37:01;;;;;;;;;;;;;;;22.35;57.22;99108.06;2210396;39;113867;-57
2021/07/06 06:38:33;;;;;;;;;;;;;;;22.35;57.33;99104.44;2211242;39;114772;-56
2021/07/06 06:40:06;;;;;;;;;;;;;;;22.34;57.31;99103.63;2211796;39;114782;-56
2021/07/06 06:41:37;;;;;;;;;;;;;;;22.35;57.33;99104.44;2211826;39;114708;-56
2021/07/06 06:43:09;;;;;;;;;;;;;;;22.34;57.22;99100.00;2211522;39;114799;-56
2021/07/06 06:44:40;;;;;;;;;;;;;;;22.34;57.31;99100.81;2211798;39;114741;-57
2021/07/06 06:46:12;;;;;;;;;;;;;;;22.34;57.44;99117.69;2211978;39;114870;-56
2021/07/06 06:47:43;;;;;;;;;;;;;;;22.36;56.88;99118.13;2211701;39;114578;-57
2021/07/06 06:49:16;;;;;;;;;;;;;;;22.34;57.39;99114.88;2211352;39;114410;-56
2021/07/06 06:50:47;;;;;;;;;;;;;;;22.34;57.49;99126.13;2214508;39;114786;-57
2021/07/06 06:52:19;;;;;;;;;;;;;;;22.33;57.54;99121.69;2211923;39;115494;-56
2021/07/06 06:53:50;;;;;;;;;;;;;;;22.34;57.64;99134.59;2211767;39;115047;-56
2021/07/06 06:55:22;;;;;;;;;;;;;;;22.33;57.35;99120.88;2210903;39;115560;-56
2021/07/06 06:56:53;;;;;;;;;;;;;;;22.32;57.59;99131.31;2210751;39;115512;-56
2021/07/06 06:58:25;;;;;;;;;;;;;;;22.33;57.56;99124.50;2209143;39;116266;-57
2021/07/06 06:59:57;;;;;;;;;;;;;;;22.33;57.45;99127.31;2211979;39;115404;-56
2021/07/06 07:01:28;;;;;;;;;;;;;;;22.32;57.37;99122.03;2211923;39;114839;-57
2021/07/06 07:03:00;;;;;;;;;;;;;;;22.31;57.48;99126.84;2210997;39;115560;-56
2021/07/06 07:04:32;;;;;;;;;;;;;;;22.35;57.56;99132.59;2211651;39;115852;-56
2021/07/06 07:06:03;;;;;;;;;;;;;;;22.34;56.93;99134.59;2210340;39;115503;-56
2021/07/06 07:07:35;;;;;;;;;;;;;;;22.35;56.90;99138.22;2211574;39;114638;-56
2021/07/06 07:09:08;;;;;;;;;;;;;;;22.32;57.01;99136.94;2211457;39;114589;-56
2021/07/06 07:10:40;;;;;;;;;;;;;;;22.34;57.25;99134.59;2211143;39;115434;-57
2021/07/06 07:12:12;;;;;;;;;;;;;;;22.32;57.18;99136.09;2212836;39;115506;-57
2021/07/06 07:13:43;;;;;;;;;;;;;;;22.32;57.15;99139.75;2210632;39;113705;-57
2021/07/06 07:15:15;;;;;;;;;;;;;;;22.31;57.28;99140.09;2211607;39;113948;-57
2021/07/06 07:16:48;;;;;;;;;;;;;;;22.31;57.29;99135.28;2211441;39;113963;-56
2021/07/06 07:18:19;;;;;;;;;;;;;;;22.32;57.08;99133.28;2211590;39;113766;-57
2021/07/06 07:19:51;;;;;;;;;;;;;;;22.30;56.95;99153.38;2211763;39;113889;-57
2021/07/06 07:21:22;;;;;;;;;;;;;;;22.34;56.84;99143.03;2212255;39;114247;-57
2021/07/06 07:22:54;;;;;;;;;;;;;;;22.32;56.87;99145.38;2210570;39;113740;-57
2021/07/06 07:24:25;;;;;;;;;;;;;;;22.31;57.15;99142.91;2211806;39;114372;-56
2021/07/06 07:25:57;;;;;;;;;;;;;;;22.31;56.59;99134.47;2211484;39;113879;-57
2021/07/06 07:27:29;;;;;;;;;;;;;;;22.31;56.81;99151.34;2211832;39;113853;-57
2021/07/06 07:29:04;;;;;;;;;;;;;;;22.30;56.81;99155.38;2210993;39;113956;-57
2021/07/06 07:30:36;;;;;;;;;;;;;;;22.29;57.00;99148.09;2210484;39;114309;-56
2021/07/06 07:32:08;;;;;;;;;;;;;;;22.29;57.05;99148.09;2210593;39;113863;-56
2021/07/06 07:33:40;;;;;;;;;;;;;;;22.28;57.03;99146.47;2213942;39;113810;-56
2021/07/06 07:35:12;;;;;;;;;;;;;;;22.27;57.26;99156.06;2211420;39;115081;-57
2021/07/06 07:36:44;;;;;;;;;;;;;;;22.30;57.00;99158.19;2210016;39;114938;-56
2021/07/06 07:38:16;;;;;;;;;;;;;;;22.29;57.06;99151.75;2211272;39;114714;-56
2021/07/06 07:39:47;;;;;;;;;;;;;;;22.31;56.82;99154.16;2211606;39;114738;-56
2021/07/06 07:41:19;;;;;;;;;;;;;;;22.27;57.09;99150.44;2211508;39;114942;-56
2021/07/06 07:42:51;;;;;;;;;;;;;;;22.27;57.19;99151.28;2211214;39;114156;-55
2021/07/06 07:44:22;;;;;;;;;;;;;;;22.28;56.73;99152.09;2211592;39;114145;-56
2021/07/06 07:45:54;;;;;;;;;;;;;;;22.26;56.91;99160.88;2211918;39;114758;-56
2021/07/06 07:47:25;;;;;;;;;;;;;;;22.26;57.24;99157.28;2211127;39;115272;-56
2021/07/06 07:48:57;;;;;;;;;;;;;;;22.27;57.26;99158.88;2210762;39;114969;-56
2021/07/06 07:50:29;;;;;;;;;;;;;;;22.31;57.10;99171.06;2209223;39;113787;-56
2021/07/06 07:52:01;;;;;;;;;;;;;;;22.27;56.98;99176.59;2210424;39;114792;-58